Time;durP1;ratioP1;P1;durP2;ratioP2;P2;SDS_P1;SDS_P2;PMS_P1;PMS_P2;Temp;Humidity;BMP_temperature;BMP_pressure;BME280_temperature;BME280_humidity;BME280_pressure;Samples;Min_cycle;Max_cycle;Signal;HPM_P1;HPM_P2
2022/10/29 00:00:14;;;;;;;16.38;5.88;;;;;;;18.13;100.00;101602.09;2094874;28;20105;-74
2022/10/29 00:01:36;;;;;;;17.15;6.70;;;;;;;18.15;100.00;101605.66;2103260;28;20048;-74
2022/10/29 00:02:58;;;;;;;19.40;6.20;;;;;;;18.13;100.00;101604.78;2089038;28;20041;-74
2022/10/29 00:04:20;;;;;;;16.48;6.50;;;;;;;18.10;100.00;101601.22;2086576;28;20057;-74
2022/10/29 00:05:42;;;;;;;19.25;6.10;;;;;;;18.07;100.00;101599.44;2102006;28;20069;-75
2022/10/29 00:07:04;;;;;;;16.48;5.75;;;;;;;18.04;100.00;101601.25;2097680;28;20040;-74
2022/10/29 00:08:30;;;;;;;14.88;5.13;;;;;;;18.01;100.00;101599.47;2094687;28;20100;-74
2022/10/29 00:09:51;;;;;;;19.58;6.72;;;;;;;17.98;100.00;101603.94;2088800;28;20534;-74
2022/10/29 00:11:17;;;;;;;18.77;6.30;;;;;;;17.99;100.00;101595.88;2103184;28;20040;-75
2022/10/29 00:12:38;;;;;;;15.93;5.43;;;;;;;17.98;100.00;101594.13;2097292;28;20045;-74
2022/10/29 00:14:02;;;;;;;16.95;6.57;;;;;;;17.99;100.00;101601.22;2088995;28;20060;-74
2022/10/29 00:15:23;;;;;;;22.20;6.80;;;;;;;17.97;100.00;101592.34;2091840;28;20135;-74
2022/10/29 00:16:46;;;;;;;21.15;5.68;;;;;;;17.97;100.00;101591.47;2094236;28;20048;-74
2022/10/29 00:18:07;;;;;;;15.18;6.10;;;;;;;17.94;100.00;101584.31;2094532;28;20048;-75
2022/10/29 00:19:29;;;;;;;18.02;6.60;;;;;;;17.91;100.00;101590.59;2093711;28;20075;-75
2022/10/29 00:20:59;;;;;;;21.40;6.22;;;;;;;17.89;100.00;101588.78;2097466;28;20044;-75
2022/10/29 00:22:22;;;;;;;19.75;6.32;;;;;;;17.87;100.00;101590.56;2095203;28;20075;-75
2022/10/29 00:23:46;;;;;;;19.17;6.40;;;;;;;17.88;100.00;101584.34;2102444;28;20068;-74
2022/10/29 00:25:08;;;;;;;14.88;5.72;;;;;;;17.87;100.00;101586.13;2096716;28;20036;-75
2022/10/29 00:26:32;;;;;;;13.50;5.90;;;;;;;17.86;100.00;101583.44;2088124;28;20083;-75
2022/10/29 00:27:55;;;;;;;17.33;5.75;;;;;;;17.85;100.00;101584.34;2092245;28;20051;-75
2022/10/29 00:29:17;;;;;;;22.42;6.18;;;;;;;17.84;100.00;101582.56;2089170;28;20052;-75
2022/10/29 00:30:39;;;;;;;14.18;5.68;;;;;;;17.82;100.00;101584.34;2102474;28;20031;-75
2022/10/29 00:32:01;;;;;;;17.05;5.72;;;;;;;17.81;100.00;101586.13;2096878;28;20068;-75
2022/10/29 00:33:22;;;;;;;18.73;6.32;;;;;;;17.81;100.00;101594.13;2096737;28;20036;-75
2022/10/29 00:34:45;;;;;;;19.05;6.00;;;;;;;17.80;100.00;101583.44;2102388;28;20079;-74
2022/10/29 00:36:11;;;;;;;16.10;6.07;;;;;;;17.80;100.00;101583.44;2097449;28;20048;-75
2022/10/29 00:37:34;;;;;;;21.77;6.13;;;;;;;17.78;100.00;101583.47;2102521;28;20076;-75
2022/10/29 00:38:59;;;;;;;21.60;6.10;;;;;;;17.78;100.00;101585.25;2096958;28;20093;-75
2022/10/29 00:40:20;;;;;;;18.52;6.72;;;;;;;17.76;100.00;101582.56;2102950;28;20101;-75
2022/10/29 00:41:43;;;;;;;17.27;6.95;;;;;;;17.76;100.00;101573.66;2097489;28;20063;-74
2022/10/29 00:43:15;;;;;;;28.48;6.43;;;;;;;17.78;100.00;101577.22;2094178;28;20442;-75
2022/10/29 00:44:37;;;;;;;19.38;6.18;;;;;;;17.75;100.00;101583.47;2097284;28;20055;-75
2022/10/29 00:46:04;;;;;;;14.85;5.93;;;;;;;17.78;100.00;101577.22;2102773;28;20147;-75
2022/10/29 00:47:30;;;;;;;19.88;6.03;;;;;;;17.78;100.00;101579.91;2087585;28;20087;-75
2022/10/29 00:48:53;;;;;;;17.40;5.95;;;;;;;17.76;100.00;101576.34;2100142;28;20073;-75
2022/10/29 00:50:16;;;;;;;23.33;6.22;;;;;;;17.77;100.00;101575.44;2096962;28;20048;-75
2022/10/29 00:51:38;;;;;;;16.98;6.35;;;;;;;17.78;100.00;101574.56;2097085;28;20139;-75
2022/10/29 00:53:02;;;;;;;19.00;7.10;;;;;;;17.75;100.00;101571.88;2093973;28;20041;-74
2022/10/29 00:54:27;;;;;;;14.65;6.50;;;;;;;17.75;100.00;101574.56;2102592;28;20112;-75
2022/10/29 00:55:49;;;;;;;17.13;6.18;;;;;;;17.74;100.00;101567.44;2097039;28;20075;-75
2022/10/29 00:57:15;;;;;;;16.17;5.45;;;;;;;17.75;100.00;101563.88;2094630;28;20131;-75
2022/10/29 00:58:38;;;;;;;17.90;6.03;;;;;;;17.75;100.00;101563.88;2096508;28;20045;-75
2022/10/29 00:59:59;;;;;;;19.15;6.88;;;;;;;17.74;100.00;101567.44;2091664;28;20502;-75
2022/10/29 01:01:21;;;;;;;19.08;5.85;;;;;;;17.73;100.00;101565.63;2086090;28;20036;-75
2022/10/29 01:02:43;;;;;;;17.40;6.00;;;;;;;17.74;100.00;101568.31;2095133;28;20105;-75
2022/10/29 01:04:07;;;;;;;20.98;6.93;;;;;;;17.76;100.00;101571.00;2094284;28;20049;-75
2022/10/29 01:05:32;;;;;;;15.23;6.10;;;;;;;17.77;100.00;101576.34;2094743;28;20166;-76
2022/10/29 01:06:54;;;;;;;20.58;6.55;;;;;;;17.77;100.00;101564.75;2094095;28;20040;-75
2022/10/29 01:08:17;;;;;;;22.23;6.15;;;;;;;17.78;100.00;101563.88;2086082;28;20130;-75
2022/10/29 01:09:40;;;;;;;17.75;6.40;;;;;;;17.78;100.00;101563.88;2085457;28;20582;-75
2022/10/29 01:11:14;;;;;;;17.20;6.50;;;;;;;17.80;100.00;101559.41;2093839;28;20471;-76
2022/10/29 01:12:51;;;;;;;17.65;6.53;;;;;;;17.80;100.00;101554.94;2095423;28;20087;-76
2022/10/29 01:14:22;;;;;;;20.70;5.85;;;;;;;17.84;100.00;101555.84;2095895;28;20059;-75
2022/10/29 01:15:53;;;;;;;13.55;5.35;;;;;;;17.91;100.00;101560.31;2086874;28;20049;-75
2022/10/29 01:17:27;;;;;;;17.65;6.05;;;;;;;17.94;100.00;101565.63;2094137;28;20139;-75
2022/10/29 01:18:56;;;;;;;23.13;6.60;;;;;;;17.96;100.00;101560.28;2095599;28;20293;-74
2022/10/29 01:20:46;;;;;;;13.32;5.18;;;;;;;17.95;100.00;101562.06;2093986;28;20045;-74
2022/10/29 01:22:17;;;;;;;18.00;5.82;;;;;;;17.96;100.00;101560.28;2105363;28;20077;-74
2022/10/29 01:24:17;;;;;;;15.27;5.68;;;;;;;17.99;100.00;101563.81;2105310;28;20531;-74
2022/10/29 01:26:05;;;;;;;15.55;6.60;;;;;;;17.97;100.00;101560.28;2096625;28;20439;-74
2022/10/29 01:27:55;;;;;;;13.93;6.13;;;;;;;17.97;100.00;101559.41;2105080;28;20068;-74
2022/10/29 01:29:31;;;;;;;13.18;5.70;;;;;;;17.98;100.00;101558.50;2096609;28;20056;-74
2022/10/29 01:31:19;;;;;;;18.20;6.00;;;;;;;18.04;100.00;101562.06;2096522;28;20449;-75
2022/10/29 01:32:50;;;;;;;19.10;5.88;;;;;;;18.05;100.00;101554.94;2090623;28;20041;-75
2022/10/29 01:34:20;;;;;;;19.65;5.97;;;;;;;18.06;100.00;101564.69;2096945;28;20605;-75
2022/10/29 01:35:49;;;;;;;19.95;5.80;;;;;;;18.06;100.00;101556.69;2096510;28;20036;-74
2022/10/29 01:37:20;;;;;;;17.75;6.28;;;;;;;18.06;100.00;101556.69;2094774;28;20052;-75
2022/10/29 01:38:52;;;;;;;19.85;6.70;;;;;;;18.07;100.00;101553.13;2103162;28;20040;-75
2022/10/29 01:40:19;;;;;;;;;;;;;;;18.03;100.00;101560.28;2105401;28;20097;-75
2022/10/29 01:41:50;;;;;;;23.50;5.68;;;;;;;18.06;100.00;101549.56;2096372;28;20354;-75
2022/10/29 01:43:15;;;;;;;17.00;6.78;;;;;;;18.07;100.00;101546.00;2103410;28;20139;-75
2022/10/29 01:44:42;;;;;;;23.02;6.88;;;;;;;18.11;100.00;101552.25;2095884;28;20040;-74
2022/10/29 01:46:10;;;;;;;15.93;5.70;;;;;;;18.14;100.00;101553.09;2103043;28;20139;-75
2022/10/29 01:47:42;;;;;;;16.45;6.00;;;;;;;18.15;100.00;101549.53;2096750;28;20424;-75
2022/10/29 01:49:11;;;;;;;17.88;6.22;;;;;;;18.16;100.00;101543.31;2103575;28;20109;-75
2022/10/29 01:50:35;;;;;;;28.50;7.28;;;;;;;18.17;100.00;101545.09;2095934;28;20081;-74
2022/10/29 01:52:01;;;;;;;15.30;5.65;;;;;;;18.17;100.00;101541.53;2096633;28;20056;-74
2022/10/29 01:53:24;;;;;;;19.20;5.82;;;;;;;18.17;100.00;101541.53;2094117;28;20086;-74
2022/10/29 01:54:48;;;;;;;15.77;6.43;;;;;;;18.16;100.00;101537.06;2093982;28;20115;-75
2022/10/29 01:56:09;;;;;;;20.33;6.97;;;;;;;18.16;100.00;101537.97;2095120;28;20159;-75
2022/10/29 01:57:35;;;;;;;15.20;6.32;;;;;;;18.15;100.00;101540.63;2101931;28;20400;-75
2022/10/29 01:59:00;;;;;;;17.33;6.05;;;;;;;18.13;100.00;101545.97;2087277;28;20102;-75
2022/10/29 02:00:24;;;;;;;16.73;6.60;;;;;;;18.11;100.00;101541.56;2099947;28;20047;-74
2022/10/29 02:01:55;;;;;;;20.40;7.45;;;;;;;18.10;100.00;101535.31;2096181;28;20074;-74
2022/10/29 02:03:34;;;;;;;20.48;6.03;;;;;;;18.09;100.00;101536.19;2087068;28;20060;-74
2022/10/29 02:05:09;;;;;;;20.38;6.22;;;;;;;18.09;100.00;101540.66;2087468;28;20134;-75
2022/10/29 02:06:41;;;;;;;22.15;6.22;;;;;;;18.07;100.00;101535.31;2086233;28;20045;-74
2022/10/29 02:08:14;;;;;;;14.70;5.60;;;;;;;18.04;100.00;101534.44;2094680;28;20048;-75
2022/10/29 02:09:45;;;;;;;22.90;6.13;;;;;;;18.03;100.00;101544.25;2095555;28;20293;-75
2022/10/29 02:11:14;;;;;;;24.60;7.00;;;;;;;18.05;100.00;101525.53;2096446;28;20063;-74
2022/10/29 02:12:43;;;;;;;16.55;5.57;;;;;;;18.09;100.00;101541.56;2096606;28;20055;-75
2022/10/29 02:14:09;;;;;;;18.38;5.47;;;;;;;18.12;100.00;101541.53;2093496;28;20088;-75
2022/10/29 02:15:38;;;;;;;20.90;6.53;;;;;;;18.14;100.00;101536.19;2102682;28;20054;-74
2022/10/29 02:17:01;;;;;;;19.05;6.60;;;;;;;18.15;100.00;101533.50;2096228;28;20117;-74
2022/10/29 02:18:26;;;;;;;21.25;6.30;;;;;;;18.19;100.00;101535.28;2093931;28;20047;-75
2022/10/29 02:19:48;;;;;;;22.45;7.20;;;;;;;18.23;100.00;101534.38;2096334;28;20040;-75
2022/10/29 02:21:10;;;;;;;20.08;5.97;;;;;;;18.27;100.00;101537.91;2101528;28;20055;-75
2022/10/29 02:22:32;;;;;;;18.42;5.75;;;;;;;18.30;100.00;101536.16;2096795;28;20456;-74
2022/10/29 02:23:55;;;;;;;18.70;5.60;;;;;;;18.31;100.00;101535.22;2101832;28;20044;-75
2022/10/29 02:25:18;;;;;;;19.85;6.22;;;;;;;18.32;100.00;101536.09;2095910;28;20049;-74
2022/10/29 02:26:39;;;;;;;16.83;6.22;;;;;;;18.30;100.00;101536.16;2101362;28;20113;-74
2022/10/29 02:28:02;;;;;;;15.32;5.95;;;;;;;18.29;100.00;101533.47;2095876;28;20080;-74
2022/10/29 02:29:23;;;;;;;21.05;6.93;;;;;;;18.28;100.00;101545.94;2093692;28;20113;-75
2022/10/29 02:30:46;;;;;;;18.15;5.32;;;;;;;18.28;100.00;101534.34;2093994;28;20677;-76
2022/10/29 02:32:07;;;;;;;19.98;5.78;;;;;;;18.33;100.00;101540.56;2088088;28;20147;-75
2022/10/29 02:33:31;;;;;;;17.65;6.43;;;;;;;18.33;100.00;101529.88;2096599;28;20059;-74
2022/10/29 02:34:53;;;;;;;19.08;5.65;;;;;;;18.31;100.00;101535.22;2096385;28;20419;-74
2022/10/29 02:36:15;;;;;;;26.55;5.53;;;;;;;18.30;100.00;101538.81;2100022;28;20110;-74
2022/10/29 02:37:37;;;;;;;21.90;6.60;;;;;;;18.27;100.00;101527.22;2096533;28;20048;-75
2022/10/29 02:38:59;;;;;;;20.95;5.78;;;;;;;18.26;100.00;101531.69;2096350;28;20102;-74
2022/10/29 02:40:22;;;;;;;17.13;6.22;;;;;;;18.24;100.00;101527.25;2101821;28;20560;-75
2022/10/29 02:41:44;;;;;;;18.55;5.43;;;;;;;18.23;100.00;101523.69;2096611;28;20048;-75
2022/10/29 02:43:06;;;;;;;20.92;6.18;;;;;;;18.24;100.00;101528.16;2085240;28;20045;-75
2022/10/29 02:44:28;;;;;;;13.82;5.32;;;;;;;18.26;100.00;101523.66;2091118;28;20542;-75
2022/10/29 02:45:56;;;;;;;22.50;5.25;;;;;;;18.28;100.00;101526.34;2092681;28;20669;-75
2022/10/29 02:47:18;;;;;;;16.55;6.25;;;;;;;18.27;100.00;101525.44;2087221;28;20425;-74
2022/10/29 02:48:42;;;;;;;22.73;6.53;;;;;;;18.27;100.00;101520.09;2093163;28;20160;-75
2022/10/29 02:50:05;;;;;;;23.33;5.90;;;;;;;18.28;100.00;101524.56;2102148;28;20044;-74
2022/10/29 02:51:27;;;;;;;20.90;5.93;;;;;;;18.28;100.00;101523.66;2088085;28;20061;-74
2022/10/29 02:52:50;;;;;;;13.70;5.57;;;;;;;18.28;100.00;101526.34;2093522;28;20044;-75
2022/10/29 02:54:11;;;;;;;24.92;5.85;;;;;;;18.27;100.00;101530.78;2087834;28;20045;-75
2022/10/29 02:55:34;;;;;;;19.42;5.25;;;;;;;18.35;100.00;101533.44;2087506;28;20099;-75
2022/10/29 02:56:57;;;;;;;19.42;5.40;;;;;;;18.40;100.00;101528.06;2100895;28;20427;-74
2022/10/29 02:58:18;;;;;;;15.50;5.85;;;;;;;18.42;100.00;101518.25;2096010;28;20047;-75
2022/10/29 02:59:41;;;;;;;13.80;6.05;;;;;;;18.42;100.00;101528.97;2095791;28;20558;-75
2022/10/29 03:01:04;;;;;;;11.75;5.85;;;;;;;18.40;100.00;101523.59;2093401;28;20056;-75
2022/10/29 03:02:26;;;;;;;17.92;6.18;;;;;;;18.40;100.00;101522.72;2101562;28;20044;-75
2022/10/29 03:03:49;;;;;;;18.55;5.68;;;;;;;18.39;100.00;101521.81;2095962;28;20041;-75
2022/10/29 03:05:12;;;;;;;18.45;6.20;;;;;;;18.39;100.00;101515.59;2096177;28;20083;-75
2022/10/29 03:06:33;;;;;;;25.13;5.65;;;;;;;18.37;100.00;101517.41;2093521;28;20045;-75
2022/10/29 03:07:56;;;;;;;15.45;5.35;;;;;;;18.36;100.00;101527.22;2092939;28;20135;-75
2022/10/29 03:09:17;;;;;;;20.55;6.10;;;;;;;18.35;100.00;101519.19;2092971;28;20077;-75
2022/10/29 03:10:40;;;;;;;15.18;5.82;;;;;;;18.34;100.00;101523.63;2092843;28;20489;-75
2022/10/29 03:12:02;;;;;;;15.93;6.10;;;;;;;18.32;100.00;101523.63;2096265;28;20045;-75
2022/10/29 03:13:24;;;;;;;19.15;5.68;;;;;;;18.31;100.00;101521.84;2087834;28;20057;-75
2022/10/29 03:14:46;;;;;;;21.25;5.82;;;;;;;18.33;100.00;101517.41;2093031;28;20041;-75
2022/10/29 03:16:08;;;;;;;25.75;5.63;;;;;;;18.36;100.00;101516.50;2092713;28;20474;-75
2022/10/29 03:17:31;;;;;;;21.17;5.72;;;;;;;18.38;100.00;101519.19;2093638;28;20520;-75
2022/10/29 03:18:53;;;;;;;15.73;5.82;;;;;;;18.37;100.00;101520.06;2087772;28;20045;-75
2022/10/29 03:20:16;;;;;;;18.20;5.95;;;;;;;18.35;100.00;101516.50;2093558;28;20106;-74
2022/10/29 03:21:39;;;;;;;18.23;5.30;;;;;;;18.35;100.00;101516.50;2092948;28;20082;-75
2022/10/29 03:23:00;;;;;;;16.63;5.95;;;;;;;18.32;100.00;101515.63;2093662;28;20040;-75
2022/10/29 03:24:23;;;;;;;20.13;6.47;;;;;;;18.31;100.00;101513.84;2096188;28;20044;-75
2022/10/29 03:25:51;;;;;;;20.50;5.57;;;;;;;18.28;100.00;101513.88;2093302;28;20048;-75
2022/10/29 03:27:13;;;;;;;22.38;6.38;;;;;;;18.27;100.00;101513.88;2093697;28;20619;-75
2022/10/29 03:28:34;;;;;;;16.17;5.60;;;;;;;18.24;100.00;101516.56;2093011;28;20044;-75
2022/10/29 03:29:57;;;;;;;19.88;5.65;;;;;;;18.21;100.00;101506.75;2084880;28;20091;-75
2022/10/29 03:31:19;;;;;;;17.20;5.32;;;;;;;18.21;100.00;101512.09;2098062;28;20069;-75
2022/10/29 03:32:41;;;;;;;18.70;6.32;;;;;;;18.21;100.00;101514.78;2096266;28;20095;-74
2022/10/29 03:34:05;;;;;;;;;;;;;;;18.16;100.00;101513.91;2103830;28;20044;-75
2022/10/29 03:35:26;;;;;;;15.48;5.80;;;;;;;18.17;100.00;101513.03;2089564;28;20304;-76
2022/10/29 03:36:49;;;;;;;18.13;5.32;;;;;;;18.20;100.00;101501.41;2091996;28;20488;-74
2022/10/29 03:38:11;;;;;;;18.90;5.93;;;;;;;18.23;100.00;101514.78;2103440;28;20147;-75
2022/10/29 03:39:33;;;;;;;19.88;5.50;;;;;;;18.28;100.00;101516.53;2097615;28;20036;-75
2022/10/29 03:40:55;;;;;;;20.27;6.47;;;;;;;18.33;100.00;101511.16;2084279;28;20067;-75
2022/10/29 03:42:17;;;;;;;17.60;5.82;;;;;;;18.35;100.00;101511.16;2089777;28;20041;-75
2022/10/29 03:43:40;;;;;;;16.90;5.22;;;;;;;18.39;100.00;101520.94;2094997;28;20037;-75
2022/10/29 03:45:02;;;;;;;21.35;7.47;;;;;;;18.44;100.00;101511.13;2086883;28;20049;-75
2022/10/29 03:46:24;;;;;;;20.02;6.32;;;;;;;18.45;100.00;101508.44;2085927;28;20468;-75
2022/10/29 03:47:45;;;;;;;26.25;5.30;;;;;;;18.47;100.00;101517.34;2092300;28;20074;-74
2022/10/29 03:49:10;;;;;;;14.73;5.75;;;;;;;18.47;100.00;101505.75;2080984;28;20145;-75
2022/10/29 03:50:31;;;;;;;17.83;6.40;;;;;;;18.47;100.00;101519.13;2081581;28;20053;-75
2022/10/29 03:51:54;;;;;;;18.88;5.75;;;;;;;18.47;100.00;101519.13;2092258;28;20131;-75
2022/10/29 03:53:15;;;;;;;14.95;5.63;;;;;;;18.49;100.00;101520.03;2096307;28;20053;-76
2022/10/29 03:54:37;;;;;;;26.23;5.57;;;;;;;18.51;100.00;101520.91;2086517;28;20749;-74
2022/10/29 03:55:58;;;;;;;21.98;5.90;;;;;;;18.52;100.00;101519.97;2086700;28;20049;-75
2022/10/29 03:57:21;;;;;;;21.83;6.85;;;;;;;18.54;100.00;101518.19;2091811;28;20423;-74
2022/10/29 03:58:42;;;;;;;18.90;5.63;;;;;;;18.57;100.00;101516.44;2086383;28;20086;-75
2022/10/29 04:00:06;;;;;;;20.27;5.50;;;;;;;18.59;100.00;101517.31;2099910;28;20074;-74
2022/10/29 04:01:35;;;;;;;20.13;6.10;;;;;;;18.59;100.00;101516.41;2089095;28;20053;-75
2022/10/29 04:02:56;;;;;;;16.58;5.57;;;;;;;18.58;100.00;101514.63;2102508;28;20536;-75
2022/10/29 04:04:20;;;;;;;17.55;5.75;;;;;;;18.60;100.00;101512.84;2096900;28;20119;-75
2022/10/29 04:05:41;;;;;;;16.55;5.57;;;;;;;18.61;100.00;101518.19;2085188;28;20143;-75
2022/10/29 04:07:04;;;;;;;17.77;6.22;;;;;;;18.61;100.00;101517.31;2086567;28;20037;-75
2022/10/29 04:08:25;;;;;;;23.70;5.75;;;;;;;18.58;100.00;101518.19;2094339;28;20064;-75
2022/10/29 04:09:48;;;;;;;20.02;6.18;;;;;;;18.56;100.00;101509.31;2089012;28;20056;-74
2022/10/29 04:11:13;;;;;;;26.50;5.97;;;;;;;18.57;100.00;101515.56;2102807;28;20131;-74
2022/10/29 04:12:34;;;;;;;14.98;5.20;;;;;;;18.55;100.00;101523.59;2088957;28;20102;-74
2022/10/29 04:13:56;;;;;;;15.57;5.32;;;;;;;18.54;100.00;101516.41;2086421;28;20045;-75
2022/10/29 04:15:19;;;;;;;19.23;5.75;;;;;;;18.55;100.00;101517.31;2099229;28;20093;-75
2022/10/29 04:16:41;;;;;;;21.45;6.82;;;;;;;18.54;100.00;101518.19;2096663;28;20682;-75
2022/10/29 04:18:03;;;;;;;18.58;5.40;;;;;;;18.52;100.00;101519.97;2094096;28;20044;-75
2022/10/29 04:19:26;;;;;;;23.38;6.30;;;;;;;18.50;100.00;101516.44;2103039;28;20484;-75
2022/10/29 04:20:48;;;;;;;16.20;5.55;;;;;;;18.47;100.00;101522.69;2096469;28;20067;-75
2022/10/29 04:22:11;;;;;;;15.93;5.45;;;;;;;18.47;100.00;101524.47;2102510;28;20109;-75
2022/10/29 04:23:32;;;;;;;18.58;5.18;;;;;;;18.45;100.00;101519.13;2096917;28;20856;-75
2022/10/29 04:24:54;;;;;;;18.65;6.13;;;;;;;18.45;100.00;101520.91;2096080;28;20513;-75
2022/10/29 04:26:17;;;;;;;14.57;5.75;;;;;;;18.45;100.00;101520.91;2094293;28;20097;-74
2022/10/29 04:27:38;;;;;;;14.27;4.72;;;;;;;18.43;100.00;101518.25;2094143;28;20148;-74
2022/10/29 04:29:00;;;;;;;17.55;4.80;;;;;;;18.41;100.00;101527.19;2085800;28;20045;-75
2022/10/29 04:30:22;;;;;;;22.83;5.95;;;;;;;18.40;100.00;101526.28;2093226;28;20071;-75
2022/10/29 04:31:45;;;;;;;17.70;4.72;;;;;;;18.40;100.00;101528.06;2086329;28;20421;-74
2022/10/29 04:33:07;;;;;;;18.52;5.13;;;;;;;18.41;100.00;101528.06;2094460;28;20051;-75
2022/10/29 04:34:32;;;;;;;15.45;5.50;;;;;;;18.42;100.00;101524.50;2089370;28;20658;-74
2022/10/29 04:35:55;;;;;;;18.30;5.22;;;;;;;18.43;100.00;101530.75;2086580;28;20059;-75
2022/10/29 04:37:17;;;;;;;19.55;6.75;;;;;;;18.42;100.00;101532.53;2088035;28;20569;-75
2022/10/29 04:38:40;;;;;;;17.73;5.90;;;;;;;18.40;100.00;101533.41;2092258;28;20135;-74
2022/10/29 04:40:02;;;;;;;20.52;5.70;;;;;;;18.38;100.00;101532.56;2090363;28;20067;-75
2022/10/29 04:41:24;;;;;;;16.52;5.68;;;;;;;18.34;100.00;101526.31;2092292;28;20045;-75
2022/10/29 04:42:46;;;;;;;21.20;5.07;;;;;;;18.33;100.00;101529.88;2102531;28;20373;-75
2022/10/29 04:44:07;;;;;;;15.77;4.93;;;;;;;18.32;100.00;101526.31;2096547;28;20053;-75
2022/10/29 04:45:30;;;;;;;;;;;;;;;18.30;100.00;101528.13;2099648;28;20436;-76
2022/10/29 04:46:52;;;;;;;17.55;5.35;;;;;;;18.31;100.00;101529.88;2087043;28;20506;-75
2022/10/29 04:48:14;;;;;;;16.95;5.93;;;;;;;18.31;100.00;101531.69;2082817;28;20111;-74
2022/10/29 04:49:38;;;;;;;18.27;8.55;;;;;;;18.33;100.00;101537.91;2093875;28;20056;-75
2022/10/29 04:50:59;;;;;;;19.25;7.30;;;;;;;18.33;100.00;101533.44;2084306;28;20482;-74
2022/10/29 04:52:21;;;;;;;22.33;6.75;;;;;;;18.31;100.00;101524.53;2086316;28;20144;-75
2022/10/29 04:53:44;;;;;;;19.92;6.35;;;;;;;18.33;100.00;101537.91;2093404;28;20041;-75
2022/10/29 04:55:07;;;;;;;16.58;5.60;;;;;;;18.38;100.00;101528.06;2098271;28;20056;-74
2022/10/29 04:56:31;;;;;;;18.98;5.03;;;;;;;18.42;100.00;101531.63;2088284;28;20053;-75
2022/10/29 04:57:54;;;;;;;19.30;5.65;;;;;;;18.44;100.00;101530.75;2099810;28;20037;-75
2022/10/29 04:59:15;;;;;;;19.98;4.93;;;;;;;18.49;100.00;101536.06;2079573;28;20050;-75
2022/10/29 05:00:37;;;;;;;19.50;5.57;;;;;;;18.49;100.00;101530.72;2079953;28;20053;-75
2022/10/29 05:01:59;;;;;;;15.35;5.55;;;;;;;18.51;100.00;101529.78;2085548;28;20044;-75
2022/10/29 05:03:21;;;;;;;14.93;5.82;;;;;;;18.54;100.00;101526.22;2090133;28;20052;-75
2022/10/29 05:04:46;;;;;;;13.95;5.28;;;;;;;18.56;100.00;101527.16;2093946;28;20090;-75
2022/10/29 05:06:07;;;;;;;21.35;5.68;;;;;;;18.58;100.00;101528.00;2096327;28;20060;-74
2022/10/29 05:07:30;;;;;;;18.30;5.28;;;;;;;18.62;100.00;101529.78;2082817;28;20056;-75
2022/10/29 05:08:51;;;;;;;16.23;5.38;;;;;;;18.64;100.00;101518.16;2078492;28;20045;-75
2022/10/29 05:10:15;;;;;;;19.80;5.90;;;;;;;18.70;100.00;101533.31;2083801;28;20444;-75
2022/10/29 05:11:37;;;;;;;17.60;5.65;;;;;;;18.75;100.00;101528.84;2094370;28;20156;-75
2022/10/29 05:13:00;;;;;;;16.73;5.68;;;;;;;18.77;100.00;101529.72;2089416;28;20070;-75
2022/10/29 05:14:22;;;;;;;18.02;5.00;;;;;;;18.83;100.00;101528.78;2096413;28;20526;-75
2022/10/29 05:15:49;;;;;;;17.15;5.43;;;;;;;18.86;100.00;101526.97;2096721;28;20048;-75
2022/10/29 05:17:11;;;;;;;19.02;5.45;;;;;;;18.90;100.00;101531.44;2102945;28;20044;-74
2022/10/29 05:18:36;;;;;;;21.10;5.40;;;;;;;18.93;100.00;101534.06;2096849;28;20505;-75
2022/10/29 05:19:59;;;;;;;14.77;6.00;;;;;;;18.98;100.00;101537.59;2094710;28;20052;-74
2022/10/29 05:21:21;;;;;;;24.75;6.18;;;;;;;19.02;100.00;101542.03;2088229;28;20506;-74
2022/10/29 05:22:43;;;;;;;11.73;5.20;;;;;;;19.03;100.00;101530.41;2086132;28;20071;-75
2022/10/29 05:24:05;;;;;;;20.85;5.90;;;;;;;19.02;100.00;101538.47;2095384;28;20052;-75
2022/10/29 05:25:27;;;;;;;16.30;5.07;;;;;;;19.05;100.00;101544.69;2090567;28;20083;-75
2022/10/29 05:26:50;;;;;;;13.48;5.20;;;;;;;19.08;100.00;101542.00;2093411;28;20052;-75
2022/10/29 05:28:13;;;;;;;16.50;5.38;;;;;;;19.11;100.00;101535.72;2091210;28;20055;-75
2022/10/29 05:29:36;;;;;;;16.80;5.45;;;;;;;19.13;100.00;101541.06;2093362;28;20564;-74
2022/10/29 05:31:01;;;;;;;14.50;5.63;;;;;;;19.13;100.00;101541.06;2102240;28;20056;-75
2022/10/29 05:32:22;;;;;;;17.80;6.68;;;;;;;19.12;100.00;101556.25;2096780;28;20393;-75
2022/10/29 05:33:44;;;;;;;21.13;5.32;;;;;;;19.09;100.00;101549.13;2096225;28;20036;-74
2022/10/29 05:35:08;;;;;;;16.67;5.05;;;;;;;19.09;100.00;101551.81;2093950;28;20056;-75
2022/10/29 05:36:30;;;;;;;18.67;5.60;;;;;;;19.09;100.00;101546.47;2102841;28;20040;-75
2022/10/29 05:37:52;;;;;;;16.77;5.60;;;;;;;19.10;100.00;101555.34;2091967;28;20049;-75
2022/10/29 05:39:15;;;;;;;16.58;4.93;;;;;;;19.11;100.00;101558.03;2085574;28;20560;-75
2022/10/29 05:40:36;;;;;;;14.68;5.53;;;;;;;19.14;100.00;101558.91;2087225;28;20386;-75
2022/10/29 05:41:59;;;;;;;14.52;5.10;;;;;;;19.17;100.00;101550.84;2102003;28;20048;-74
2022/10/29 05:43:21;;;;;;;17.10;6.13;;;;;;;19.20;100.00;101554.41;2080207;28;20126;-75
2022/10/29 05:44:42;;;;;;;16.15;4.95;;;;;;;19.24;100.00;101553.47;2086615;28;20139;-74
2022/10/29 05:46:05;;;;;;;19.48;5.05;;;;;;;19.28;100.00;101560.59;2096353;28;20590;-75
2022/10/29 05:47:26;;;;;;;14.90;5.32;;;;;;;19.31;100.00;101554.31;2092079;28;20567;-75
2022/10/29 05:48:48;;;;;;;18.30;5.85;;;;;;;19.37;100.00;101554.25;2088000;28;20545;-74
2022/10/29 05:50:12;;;;;;;15.52;4.93;;;;;;;19.45;100.00;101552.41;2077521;28;20077;-74
2022/10/29 05:51:34;;;;;;;15.02;4.63;;;;;;;19.49;100.00;101555.09;2075724;28;20065;-74
2022/10/29 05:52:56;;;;;;;16.60;4.90;;;;;;;19.51;100.00;101555.06;2098859;28;20369;-74
2022/10/29 05:54:19;;;;;;;15.85;4.53;;;;;;;19.52;100.00;101556.88;2080228;28;20060;-75
2022/10/29 05:55:42;;;;;;;21.13;5.38;;;;;;;19.53;100.00;101555.97;2088838;28;20575;-75
2022/10/29 05:57:03;;;;;;;15.32;4.88;;;;;;;19.57;100.00;101552.34;2102525;28;20120;-75
2022/10/29 05:58:26;;;;;;;17.58;5.68;;;;;;;19.65;100.00;101558.53;2095795;28;20044;-75
2022/10/29 05:59:48;;;;;;;16.25;5.80;;;;;;;19.74;100.00;101561.13;2102077;28;20385;-75
2022/10/29 06:01:12;;;;;;;16.48;5.80;;;;;;;19.82;100.00;101561.06;2096276;28;20053;-75
2022/10/29 06:02:33;;;;;;;24.75;5.72;;;;;;;19.86;100.00;101561.03;2091339;28;20045;-75
2022/10/29 06:03:55;;;;;;;16.27;5.05;;;;;;;19.87;100.00;101567.28;2093459;28;20055;-76
2022/10/29 06:05:19;;;;;;;20.38;4.97;;;;;;;19.89;100.00;101566.34;2090080;28;20118;-76
2022/10/29 06:06:41;;;;;;;20.15;5.38;;;;;;;19.89;100.00;101570.81;2089462;28;20074;-75
2022/10/29 06:08:03;;;;;;;15.13;4.95;;;;;;;19.88;100.00;101575.31;2094333;28;20045;-75
2022/10/29 06:09:25;;;;;;;17.77;5.68;;;;;;;19.87;100.00;101573.53;2101661;28;20516;-75
2022/10/29 06:10:48;;;;;;;13.85;5.32;;;;;;;19.90;100.00;101573.47;2101389;28;20138;-76
2022/10/29 06:12:09;;;;;;;22.67;5.32;;;;;;;19.94;100.00;101573.47;2098448;28;20060;-76
2022/10/29 06:13:31;;;;;;;21.15;5.18;;;;;;;19.97;100.00;101579.66;2104324;28;20061;-76
2022/10/29 06:14:53;;;;;;;11.98;4.80;;;;;;;19.99;100.00;101576.97;2101517;28;20055;-76
2022/10/29 06:16:15;;;;;;;16.13;6.28;;;;;;;20.00;100.00;101578.75;2083506;28;20139;-76
2022/10/29 06:17:40;;;;;;;12.80;5.22;;;;;;;19.99;100.00;101574.28;2099037;28;20515;-78
2022/10/29 06:19:02;;;;;;;12.02;5.00;;;;;;;19.97;100.00;101578.78;2085347;28;20055;-76
2022/10/29 06:20:26;;;;;;;29.75;6.15;;;;;;;19.97;99.91;101581.47;2093261;28;20048;-76
2022/10/29 06:21:49;;;;;;;13.57;4.70;;;;;;;19.97;99.76;101585.03;2104590;28;20048;-76